Time;durP1;ratioP1;P1;durP2;ratioP2;P2;SDS_P1;SDS_P2;PMS_P1;PMS_P2;Temp;Humidity;BMP_temperature;BMP_pressure;BME280_temperature;BME280_humidity;BME280_pressure;Samples;Min_cycle;Max_cycle;Signal;HPM_P1;HPM_P2
2022/10/21 04:01:49;;;;;;;37.37;23.83;;;14.50;99.90;;;;;;5344232;23;20513;-65
2022/10/21 04:04:16;;;;;;;31.50;24.20;;;14.50;99.90;;;;;;4978883;28;20794;-64
2022/10/21 04:06:43;;;;;;;29.00;23.80;;;14.60;99.90;;;;;;4978532;28;20860;-64
2022/10/21 04:09:10;;;;;;;30.63;23.00;;;14.70;99.90;;;;;;4978898;28;20462;-65
2022/10/21 04:11:36;;;;;;;26.90;23.20;;;14.70;99.90;;;;;;4978660;28;20525;-64
2022/10/21 04:14:03;;;;;;;32.07;24.30;;;14.80;99.90;;;;;;4978640;28;20478;-65
2022/10/21 04:16:30;;;;;;;27.63;22.40;;;14.80;99.90;;;;;;4978653;28;20465;-64
2022/10/21 04:18:58;;;;;;;27.50;22.20;;;14.90;99.90;;;;;;4978597;28;20509;-64
2022/10/21 04:21:24;;;;;;;25.70;22.30;;;15.00;99.90;;;;;;4978677;28;20502;-64
2022/10/21 04:23:51;;;;;;;26.43;22.20;;;15.00;99.90;;;;;;4978760;28;20458;-64
2022/10/21 04:26:18;;;;;;;29.33;22.70;;;15.00;99.90;;;;;;4978782;28;20489;-65
2022/10/21 04:28:45;;;;;;;27.37;22.23;;;15.00;99.90;;;;;;4978692;28;20524;-64
2022/10/21 04:31:11;;;;;;;26.63;21.00;;;15.00;99.90;;;;;;4978588;28;20474;-64
2022/10/21 04:33:38;;;;;;;32.33;21.30;;;15.00;99.90;;;;;;4978321;28;20482;-64
2022/10/21 04:36:07;;;;;;;23.77;20.30;;;15.00;99.90;;;;;;4978241;28;20506;-64
2022/10/21 04:38:33;;;;;;;21.77;19.43;;;15.00;99.90;;;;;;4978479;28;20450;-64
2022/10/21 04:41:02;;;;;;;23.70;19.70;;;14.90;99.90;;;;;;4978351;28;20529;-64
2022/10/21 04:43:29;;;;;;;27.73;20.00;;;14.90;99.90;;;;;;4979059;28;20524;-64
2022/10/21 04:45:56;;;;;;;23.67;18.60;;;14.90;99.90;;;;;;4978799;28;20509;-64
2022/10/21 04:48:23;;;;;;;23.17;20.40;;;14.90;99.90;;;;;;4978231;28;20821;-64
2022/10/21 04:50:50;;;;;;;30.33;21.60;;;14.90;99.90;;;;;;4977959;28;20474;-64
2022/10/21 04:53:18;;;;;;;25.97;20.37;;;14.90;99.90;;;;;;4978135;28;20455;-63
2022/10/21 04:55:45;;;;;;;23.27;19.40;;;14.90;99.90;;;;;;4978001;28;20454;-63
2022/10/21 04:58:12;;;;;;;26.70;21.30;;;14.90;99.90;;;;;;4977923;28;20870;-64
2022/10/21 05:00:39;;;;;;;23.90;20.50;;;14.90;99.90;;;;;;4978478;28;20482;-64
2022/10/21 05:03:05;;;;;;;26.30;19.70;;;14.90;99.90;;;;;;4977983;28;20446;-65
2022/10/21 05:05:32;;;;;;;23.00;20.00;;;14.80;99.90;;;;;;4977735;28;20450;-64
2022/10/21 05:07:59;;;;;;;27.20;19.17;;;14.80;99.90;;;;;;4977812;28;20454;-63
2022/10/21 05:10:29;;;;;;;25.87;19.17;;;14.90;99.90;;;;;;4977611;28;20455;-63
2022/10/21 05:12:55;;;;;;;25.90;20.20;;;14.90;99.90;;;;;;4977938;28;20498;-64
2022/10/21 05:15:22;;;;;;;25.10;19.80;;;14.90;99.90;;;;;;4977455;28;20482;-64
2022/10/21 05:17:49;;;;;;;26.80;19.70;;;14.90;99.90;;;;;;4977599;28;20465;-64
2022/10/21 05:20:16;;;;;;;27.23;18.70;;;15.00;99.90;;;;;;4977417;28;20857;-63
2022/10/21 05:22:43;;;;;;;26.53;18.90;;;15.00;99.90;;;;;;4977665;28;20868;-65
2022/10/21 05:25:09;;;;;;;23.23;19.47;;;15.00;99.90;;;;;;4977316;28;21004;-65
2022/10/21 05:27:38;;;;;;;22.40;20.10;;;15.10;99.90;;;;;;4977401;28;20455;-64
2022/10/21 05:30:05;;;;;;;24.33;19.90;;;15.00;99.90;;;;;;4977174;28;20911;-65
2022/10/21 05:32:32;;;;;;;25.13;19.57;;;15.00;99.90;;;;;;4976834;28;20985;-64
2022/10/21 05:34:59;;;;;;;23.87;21.13;;;15.00;99.90;;;;;;4977286;28;20478;-64
2022/10/21 05:37:25;;;;;;;24.20;19.77;;;15.00;99.90;;;;;;4977093;28;20510;-64
2022/10/21 05:39:52;;;;;;;23.67;20.33;;;15.00;99.90;;;;;;4977120;28;20459;-64
2022/10/21 05:42:18;;;;;;;30.53;20.20;;;14.90;99.90;;;;;;4976952;28;20478;-64
2022/10/21 05:44:47;;;;;;;28.50;20.17;;;14.90;99.90;;;;;;4976966;28;20455;-64
2022/10/21 05:47:13;;;;;;;27.40;18.20;;;14.90;99.90;;;;;;4976979;28;20533;-64
2022/10/21 05:49:40;;;;;;;23.70;17.90;;;14.90;99.90;;;;;;4976501;28;20941;-64
2022/10/21 05:52:07;;;;;;;24.10;17.53;;;14.90;99.90;;;;;;4976865;28;20490;-64
2022/10/21 05:54:33;;;;;;;24.23;16.63;;;14.90;99.90;;;;;;4976822;28;20474;-64
2022/10/21 05:57:01;;;;;;;25.67;16.80;;;15.00;99.90;;;;;;4977106;28;20454;-64
2022/10/21 05:59:27;;;;;;;25.13;15.77;;;15.00;99.90;;;;;;4977452;28;20529;-64
2022/10/21 06:01:55;;;;;;;19.90;14.30;;;15.10;99.90;;;;;;4976817;28;20513;-64
2022/10/21 06:04:22;;;;;;;24.30;11.93;;;15.10;99.90;;;;;;4976922;28;20941;-64
2022/10/21 06:06:49;;;;;;;18.07;10.87;;;15.20;99.90;;;;;;4976890;28;20521;-64
2022/10/21 06:09:15;;;;;;;17.10;11.30;;;15.30;99.90;;;;;;4977065;28;20467;-64
2022/10/21 06:11:42;;;;;;;17.73;11.07;;;15.40;99.90;;;;;;4977077;28;20483;-63
2022/10/21 06:14:09;;;;;;;13.23;10.03;;;15.40;99.90;;;;;;4976930;28;20529;-64
2022/10/21 06:16:35;;;;;;;14.63;10.17;;;15.50;99.90;;;;;;4977086;28;20459;-64
2022/10/21 06:19:03;;;;;;;15.23;10.70;;;15.60;99.90;;;;;;4976107;28;20949;-64
2022/10/21 06:21:30;;;;;;;12.57;9.50;;;15.60;99.90;;;;;;4976684;28;20470;-64
2022/10/21 06:23:57;;;;;;;18.73;10.33;;;15.70;99.90;;;;;;4976876;28;20482;-64
2022/10/21 06:26:24;;;;;;;23.17;13.10;;;15.70;99.90;;;;;;4976711;28;20514;-64
2022/10/21 06:28:50;;;;;;;18.50;14.40;;;15.80;99.90;;;;;;4976327;28;20463;-64
2022/10/21 06:31:20;;;;;;;17.33;13.50;;;15.80;99.90;;;;;;4976550;28;20479;-64
2022/10/21 06:33:47;;;;;;;19.03;13.13;;;15.80;99.90;;;;;;4976032;28;20454;-64
2022/10/21 06:36:15;;;;;;;17.40;13.57;;;15.80;99.90;;;;;;4976039;28;20513;-64
2022/10/21 06:38:42;;;;;;;17.90;12.67;;;15.70;99.90;;;;;;4976014;28;20463;-64
2022/10/21 06:41:11;;;;;;;15.97;12.87;;;15.80;99.90;;;;;;4976157;28;20474;-64
2022/10/21 06:43:37;;;;;;;20.50;12.50;;;15.70;99.90;;;;;;4976111;28;20459;-64
2022/10/21 06:46:06;;;;;;;17.63;13.50;;;15.70;99.90;;;;;;4975975;28;20455;-64
2022/10/21 06:48:34;;;;;;;25.40;12.60;;;15.70;99.90;;;;;;4975913;28;20509;-64
2022/10/21 06:51:03;;;;;;;18.43;12.37;;;15.60;99.90;;;;;;4975776;28;20485;-64
2022/10/21 06:53:31;;;;;;;15.37;11.60;;;15.60;99.90;;;;;;4975848;28;20487;-64
2022/10/21 06:56:02;;;;;;;16.23;12.73;;;15.60;99.90;;;;;;4975684;28;20474;-64
2022/10/21 06:58:29;;;;;;;17.43;12.57;;;15.60;99.90;;;;;;4975701;28;20543;-64
2022/10/21 07:00:56;;;;;;;19.03;12.83;;;15.60;99.90;;;;;;4975479;28;20545;-64
2022/10/21 07:03:23;;;;;;;18.30;12.07;;;15.60;99.90;;;;;;4975607;28;20455;-64
2022/10/21 07:05:49;;;;;;;21.93;14.50;;;15.60;99.90;;;;;;4975553;28;20455;-64
2022/10/21 07:08:16;;;;;;;17.87;12.67;;;15.60;99.90;;;;;;4975583;28;20459;-64
2022/10/21 07:10:44;;;;;;;17.87;13.17;;;15.60;99.90;;;;;;4975335;28;20534;-64
2022/10/21 07:13:12;;;;;;;18.63;13.10;;;15.60;99.90;;;;;;4975361;28;20458;-64
2022/10/21 07:15:38;;;;;;;19.87;14.40;;;15.70;99.90;;;;;;4975212;28;20484;-64
2022/10/21 07:18:05;;;;;;;26.20;12.70;;;15.60;99.90;;;;;;4975328;28;20470;-64
2022/10/21 07:20:33;;;;;;;23.63;13.30;;;15.80;99.90;;;;;;4974913;28;21033;-63
2022/10/21 07:23:00;;;;;;;19.60;11.73;;;15.70;99.90;;;;;;4975206;28;20514;-64
2022/10/21 07:25:26;;;;;;;18.97;13.20;;;15.70;99.90;;;;;;4975145;28;20874;-64
2022/10/21 07:27:54;;;;;;;24.67;13.00;;;15.70;99.90;;;;;;4975397;28;20459;-63
2022/10/21 07:30:22;;;;;;;23.00;12.50;;;15.70;99.90;;;;;;4974898;28;20450;-63
2022/10/21 07:32:48;;;;;;;20.00;12.00;;;15.70;99.90;;;;;;4975137;28;20458;-64
2022/10/21 07:35:15;;;;;;;22.20;14.97;;;15.70;99.90;;;;;;4975016;28;20529;-64
2022/10/21 07:37:42;;;;;;;19.57;13.97;;;15.70;99.90;;;;;;4975229;28;20462;-64
2022/10/21 07:40:11;;;;;;;22.00;13.83;;;15.80;99.90;;;;;;4975179;28;20458;-65
2022/10/21 07:42:37;;;;;;;20.40;13.60;;;15.80;99.90;;;;;;4974821;28;20938;-64
2022/10/21 07:45:06;;;;;;;15.80;11.13;;;15.80;99.90;;;;;;4975109;28;20501;-64
2022/10/21 07:47:33;;;;;;;24.37;11.70;;;15.80;99.90;;;;;;4975726;28;20455;-64
2022/10/21 07:49:59;;;;;;;23.30;13.10;;;15.80;99.90;;;;;;4975078;28;20465;-64
2022/10/21 07:52:26;;;;;;;20.43;11.80;;;15.80;99.90;;;;;;4974713;28;20827;-63
2022/10/21 07:54:53;;;;;;;17.80;10.73;;;15.80;99.90;;;;;;4975131;28;20474;-61
2022/10/21 07:57:20;;;;;;;22.60;12.03;;;15.90;99.90;;;;;;4974972;28;20455;-61
2022/10/21 07:59:46;;;;;;;21.53;12.50;;;15.90;99.90;;;;;;4974880;28;20462;-62
2022/10/21 08:02:15;;;;;;;19.53;11.83;;;15.90;99.90;;;;;;4974415;28;20914;-61
2022/10/21 08:04:41;;;;;;;23.67;12.23;;;15.90;99.90;;;;;;4974871;28;20455;-61
2022/10/21 08:07:08;;;;;;;17.93;12.00;;;15.90;99.90;;;;;;4974857;28;20517;-61
2022/10/21 08:09:35;;;;;;;22.07;11.23;;;15.90;99.90;;;;;;4975304;28;20462;-61
2022/10/21 08:12:02;;;;;;;17.57;10.50;;;15.90;99.90;;;;;;4974684;28;20474;-61
2022/10/21 08:14:28;;;;;;;20.37;10.47;;;15.90;99.90;;;;;;4974615;28;20462;-61
2022/10/21 08:16:55;;;;;;;18.57;10.73;;;15.90;99.90;;;;;;4974761;28;20457;-62
2022/10/21 08:19:28;;;;;;;21.77;11.43;;;15.90;99.90;;;;;;4974815;28;20454;-61
2022/10/21 08:21:55;;;;;;;19.67;11.63;;;15.90;99.90;;;;;;4974792;28;20474;-61
2022/10/21 08:24:23;;;;;;;16.50;10.90;;;15.90;99.90;;;;;;4974865;28;20451;-65
2022/10/21 08:26:50;;;;;;;21.17;10.50;;;15.90;99.90;;;;;;4975058;28;20461;-64
2022/10/21 08:29:16;;;;;;;13.03;10.30;;;15.90;99.90;;;;;;4974582;28;20458;-63
2022/10/21 08:31:43;;;;;;;14.83;9.20;;;16.00;99.90;;;;;;4974519;28;20526;-62
2022/10/21 08:34:10;;;;;;;16.67;10.40;;;16.00;99.90;;;;;;4974638;28;20513;-63
2022/10/21 08:36:38;;;;;;;17.33;10.37;;;16.00;99.90;;;;;;4974114;28;20486;-64
2022/10/21 08:39:05;;;;;;;19.27;11.10;;;16.00;99.90;;;;;;4974679;28;20481;-64
2022/10/21 08:41:58;;;;;;;20.70;10.70;;;16.00;99.90;;;;;;4974554;28;20485;-63
2022/10/21 08:44:32;;;;;;;19.10;9.70;;;16.00;99.90;;;;;;4978436;28;20485;-63
2022/10/21 08:47:05;;;;;;;22.83;11.23;;;16.00;99.90;;;;;;4978304;28;20443;-63
2022/10/21 08:49:42;;;;;;;16.13;12.47;;;16.10;99.90;;;;;;4978103;28;20498;-64
2022/10/21 08:52:15;;;;;;;20.13;12.37;;;16.10;99.90;;;;;;4977814;28;21004;-63
2022/10/21 08:54:44;;;;;;;14.43;10.80;;;16.10;99.90;;;;;;4977980;28;20522;-64
2022/10/21 08:57:12;;;;;;;12.43;8.67;;;16.20;99.90;;;;;;4977698;28;20946;-64
2022/10/21 08:59:40;;;;;;;16.43;10.10;;;16.30;99.90;;;;;;4977878;28;20458;-63
2022/10/21 09:02:27;;;;;;;15.83;10.50;;;16.40;99.90;;;;;;4977710;28;20486;-62
2022/10/21 09:05:07;;;;;;;15.50;10.23;;;16.40;99.90;;;;;;4978424;28;20435;-63
2022/10/21 09:07:46;;;;;;;16.30;10.50;;;16.50;99.90;;;;;;4977718;28;20849;-63
2022/10/21 09:10:22;;;;;;;15.57;11.20;;;16.40;99.90;;;;;;4977801;28;20973;-63
2022/10/21 09:13:06;;;;;;;15.93;10.63;;;16.20;99.90;;;;;;4977762;28;20910;-59
2022/10/21 09:15:45;;;;;;;19.70;11.63;;;16.20;99.90;;;;;;4977735;28;20509;-60
2022/10/21 09:18:25;;;;;;;18.57;12.60;;;16.10;99.90;;;;;;4977663;28;20443;-59
2022/10/21 09:21:00;;;;;;;15.83;11.50;;;16.10;99.90;;;;;;4977387;28;20998;-60
2022/10/21 09:23:39;;;;;;;15.17;10.50;;;16.10;99.90;;;;;;4978165;28;20438;-60
2022/10/21 09:26:21;;;;;;;13.73;10.30;;;16.10;99.90;;;;;;4977637;28;20497;-59
2022/10/21 09:28:51;;;;;;;20.47;11.10;;;16.10;99.90;;;;;;4977272;28;20497;-59
2022/10/21 09:31:20;;;;;;;13.93;10.67;;;16.20;99.90;;;;;;4977064;28;20525;-61
2022/10/21 09:33:49;;;;;;;14.90;11.43;;;16.20;99.90;;;;;;4977086;28;20946;-60
2022/10/21 09:36:23;;;;;;;17.20;11.60;;;16.20;99.90;;;;;;4977918;28;20538;-60
2022/10/21 09:38:56;;;;;;;17.07;11.03;;;16.30;99.90;;;;;;4977172;28;20782;-60
2022/10/21 09:41:30;;;;;;;18.33;12.20;;;16.30;99.90;;;;;;4977227;28;20474;-60
2022/10/21 09:43:57;;;;;;;18.60;12.97;;;16.40;99.90;;;;;;4977259;28;20442;-60
2022/10/21 09:46:24;;;;;;;18.63;11.53;;;16.50;99.90;;;;;;4977139;28;20506;-60
2022/10/21 09:48:53;;;;;;;14.53;10.27;;;16.50;99.90;;;;;;4977005;28;20942;-59
2022/10/21 09:51:23;;;;;;;13.90;10.33;;;16.50;99.90;;;;;;4977028;28;20537;-60
2022/10/21 09:53:55;;;;;;;18.53;9.40;;;16.60;99.90;;;;;;4976531;28;20443;-60
2022/10/21 09:56:25;;;;;;;17.10;9.53;;;16.60;99.90;;;;;;4976984;28;20466;-60
2022/10/21 09:59:04;;;;;;;16.07;8.93;;;16.70;99.90;;;;;;4977207;28;20559;-60
2022/10/21 10:01:31;;;;;;;16.10;7.80;;;16.80;99.90;;;;;;4977004;28;20490;-61
2022/10/21 10:03:58;;;;;;;14.50;7.57;;;16.80;99.90;;;;;;4976768;28;20518;-60
2022/10/21 10:06:33;;;;;;;11.10;7.50;;;16.80;99.90;;;;;;4976848;28;20451;-61
2022/10/21 10:09:16;;;;;;;14.47;8.03;;;16.90;99.90;;;;;;4976600;28;20458;-60
2022/10/21 10:11:50;;;;;;;11.20;6.53;;;17.00;99.90;;;;;;4976676;28;20474;-60
2022/10/21 10:14:24;;;;;;;9.57;5.80;;;17.00;99.90;;;;;;4976533;28;20546;-60
2022/10/21 10:16:51;;;;;;;9.30;4.80;;;17.10;99.90;;;;;;4976392;28;20466;-60
2022/10/21 10:19:19;;;;;;;9.90;5.00;;;17.20;99.90;;;;;;4976347;28;20509;-60
2022/10/21 10:21:50;;;;;;;13.07;5.30;;;17.20;99.90;;;;;;4976317;28;20475;-60
2022/10/21 10:24:19;;;;;;;7.13;5.30;;;17.30;99.90;;;;;;4976212;28;20470;-60
2022/10/21 10:26:47;;;;;;;5.63;4.43;;;17.30;99.90;;;;;;4975938;28;21009;-60
2022/10/21 10:29:24;;;;;;;12.03;4.57;;;17.30;99.90;;;;;;4976287;28;20455;-61
2022/10/21 10:31:55;;;;;;;7.20;4.40;;;17.30;99.90;;;;;;4976037;28;20900;-61
2022/10/21 10:34:27;;;;;;;7.60;4.97;;;17.40;99.90;;;;;;4976247;28;20443;-63
2022/10/21 10:37:01;;;;;;;6.40;4.40;;;17.40;99.90;;;;;;4976367;28;20474;-60
2022/10/21 10:39:32;;;;;;;6.93;3.73;;;17.40;99.90;;;;;;4976115;28;20446;-60
2022/10/21 10:41:59;;;;;;;5.70;3.97;;;17.40;99.90;;;;;;4976222;28;20533;-60
2022/10/21 10:44:31;;;;;;;8.20;4.33;;;17.50;99.90;;;;;;4976137;28;20829;-60
2022/10/21 10:47:00;;;;;;;6.67;4.90;;;17.50;99.90;;;;;;4976097;28;20497;-61
2022/10/21 10:49:33;;;;;;;7.00;4.00;;;17.50;99.90;;;;;;4976067;28;20490;-61
2022/10/21 10:52:07;;;;;;;4.80;3.80;;;17.50;99.90;;;;;;4976047;28;20533;-61
2022/10/21 10:54:36;;;;;;;7.97;4.27;;;17.50;99.90;;;;;;4976840;28;20455;-61
2022/10/21 10:57:06;;;;;;;8.00;3.67;;;17.50;99.90;;;;;;4976138;28;20527;-63
2022/10/21 10:59:39;;;;;;;5.80;3.63;;;17.50;99.90;;;;;;4975945;28;20514;-63
2022/10/21 11:02:20;;;;;;;6.43;4.23;;;17.50;99.90;;;;;;4975773;28;20537;-60
2022/10/21 11:05:00;;;;;;;5.10;3.70;;;17.60;99.90;;;;;;4976014;28;20836;-61
2022/10/21 11:07:33;;;;;;;7.97;3.80;;;17.60;99.90;;;;;;4975690;28;20489;-61
2022/10/21 11:10:06;;;;;;;5.00;3.20;;;17.70;99.90;;;;;;4975954;28;20446;-61
2022/10/21 11:12:33;;;;;;;7.90;3.70;;;17.70;99.90;;;;;;4975393;28;20483;-61
2022/10/21 11:15:00;;;;;;;7.43;3.00;;;17.80;99.90;;;;;;4975267;28;21037;-61
2022/10/21 11:17:35;;;;;;;8.27;3.30;;;17.80;99.90;;;;;;4975401;28;20478;-61
2022/10/21 11:20:07;;;;;;;5.90;2.87;;;17.90;99.90;;;;;;4975779;28;20485;-61
2022/10/21 11:22:43;;;;;;;8.60;3.83;;;17.90;99.90;;;;;;4975372;28;20534;-61
2022/10/21 11:25:21;;;;;;;8.10;2.97;;;18.00;99.90;;;;;;4975502;28;20439;-61
2022/10/21 11:28:07;;;;;;;7.30;2.77;;;18.00;99.90;;;;;;4975541;28;20860;-61
2022/10/21 11:30:46;;;;;;;6.73;2.60;;;18.10;99.90;;;;;;4975052;28;21051;-61
2022/10/21 11:33:21;;;;;;;2.93;2.03;;;18.20;99.90;;;;;;4975591;28;20438;-60
2022/10/21 11:35:56;;;;;;;4.67;2.90;;;18.30;99.90;;;;;;4975317;28;21047;-61
2022/10/21 11:39:00;;;;;;;2.10;2.00;;;18.30;99.90;;;;;;4975494;28;20533;-61
2022/10/21 11:41:38;;;;;;;4.90;2.47;;;18.40;99.90;;;;;;4975057;28;20545;-61
2022/10/21 11:44:15;;;;;;;5.03;2.20;;;18.50;99.90;;;;;;4976112;28;20775;-61
2022/10/21 11:46:54;;;;;;;6.60;2.50;;;18.60;99.90;;;;;;4975165;28;20475;-61
2022/10/21 11:49:41;;;;;;;4.27;2.33;;;18.70;99.90;;;;;;4975116;28;20530;-61
2022/10/21 11:52:18;;;;;;;3.93;2.17;;;18.70;99.90;;;;;;4975027;28;20509;-61
2022/10/21 11:55:04;;;;;;;3.33;1.77;;;18.80;99.90;;;;;;4975097;28;20442;-61
2022/10/21 11:57:40;;;;;;;1.80;1.70;;;18.90;99.90;;;;;;4975033;28;20467;-61
2022/10/21 12:00:14;;;;;;;2.70;1.37;;;19.00;99.90;;;;;;4974979;28;20526;-61
2022/10/21 12:02:45;;;;;;;4.50;1.97;;;19.00;99.90;;;;;;4974889;28;20471;-61
2022/10/21 12:05:25;;;;;;;2.90;1.80;;;19.10;99.90;;;;;;4974747;28;20501;-61
2022/10/21 12:08:04;;;;;;;1.20;1.10;;;19.10;99.90;;;;;;4974938;28;20841;-61
2022/10/21 12:10:35;;;;;;;1.40;1.30;;;19.20;99.90;;;;;;4975279;28;20977;-61
2022/10/21 12:13:11;;;;;;;2.40;1.57;;;19.20;99.90;;;;;;4974840;28;20490;-61
2022/10/21 12:15:41;;;;;;;1.10;1.10;;;19.20;99.90;;;;;;4974695;28;20443;-61
2022/10/21 12:18:15;;;;;;;1.43;1.10;;;19.10;99.90;;;;;;4977179;28;20513;-60
2022/10/21 12:20:43;;;;;;;3.80;1.20;;;19.00;99.90;;;;;;4978678;28;20533;-61
2022/10/21 12:23:13;;;;;;;1.63;1.40;;;18.90;99.90;;;;;;4978695;28;20513;-60
2022/10/21 12:25:43;;;;;;;4.67;1.10;;;18.90;99.90;;;;;;4978543;28;20489;-60
2022/10/21 12:28:21;;;;;;;5.60;1.03;;;18.90;99.90;;;;;;4978445;28;20503;-60
2022/10/21 12:30:55;;;;;;;2.73;1.27;;;18.80;99.90;;;;;;4978422;28;20505;-61
2022/10/21 12:33:33;;;;;;;1.90;1.70;;;18.80;99.90;;;;;;4978900;28;20498;-61
2022/10/21 12:36:16;;;;;;;3.07;1.20;;;18.80;99.90;;;;;;4978322;28;20466;-60
2022/10/21 12:38:46;;;;;;;2.67;1.37;;;18.70;99.90;;;;;;4978266;28;20493;-60
2022/10/21 12:41:33;;;;;;;4.87;1.17;;;18.80;99.90;;;;;;4978078;28;20879;-60
2022/10/21 12:44:24;;;;;;;2.30;1.30;;;18.80;99.90;;;;;;4978271;28;20521;-60
2022/10/21 12:46:52;;;;;;;2.53;1.30;;;18.80;99.90;;;;;;4974127;28;20505;-61
2022/10/21 12:49:24;;;;;;;1.47;1.30;;;18.80;99.90;;;;;;4978209;28;20455;-60
2022/10/21 12:51:54;;;;;;;1.50;1.10;;;18.80;99.90;;;;;;4977722;28;20982;-61
2022/10/21 12:54:24;;;;;;;1.20;1.17;;;18.70;99.90;;;;;;4978110;28;20494;-61
2022/10/21 12:56:59;;;;;;;1.03;1.00;;;18.70;99.90;;;;;;4977928;28;20466;-61
2022/10/21 12:59:31;;;;;;;1.50;1.00;;;18.60;99.90;;;;;;4977984;28;20442;-61
2022/10/21 13:02:22;;;;;;;1.87;1.70;;;18.50;99.90;;;;;;4977566;28;20525;-61
2022/10/21 13:04:51;;;;;;;1.43;1.33;;;18.50;99.90;;;;;;4977909;28;20439;-62
2022/10/21 13:07:35;;;;;;;1.57;1.47;;;18.50;99.90;;;;;;4977764;28;20439;-61
2022/10/21 13:10:16;;;;;;;1.80;1.40;;;18.50;99.90;;;;;;4977574;28;20945;-61
2022/10/21 13:12:42;;;;;;;3.70;1.10;;;18.60;99.90;;;;;;4977779;28;20438;-61
2022/10/21 13:15:45;;;;;;;2.37;1.50;;;18.70;99.90;;;;;;4977651;28;20855;-61
2022/10/21 13:18:12;;;;;;;2.07;1.30;;;18.70;99.90;;;;;;4977772;28;20442;-61
2022/10/21 13:20:47;;;;;;;1.90;1.77;;;18.70;99.90;;;;;;4977505;28;20478;-60
2022/10/21 13:23:31;;;;;;;1.83;1.37;;;18.70;99.90;;;;;;4977253;28;20945;-60
2022/10/21 13:26:20;;;;;;;2.30;1.40;;;18.80;99.90;;;;;;4977965;28;20799;-61
2022/10/21 13:28:58;;;;;;;1.90;1.70;;;18.80;99.90;;;;;;4974375;28;20545;-61
2022/10/21 13:31:26;;;;;;;3.57;1.73;;;18.90;99.90;;;;;;4977171;28;20973;-62
2022/10/21 13:33:55;;;;;;;2.33;1.50;;;18.90;99.90;;;;;;4977340;28;20461;-63
2022/10/21 13:36:33;;;;;;;3.23;1.40;;;18.90;99.90;;;;;;4977066;28;20478;-62
2022/10/21 13:39:05;;;;;;;3.60;1.40;;;18.90;99.90;;;;;;4977414;28;20926;-62
2022/10/21 13:41:32;;;;;;;1.50;1.37;;;18.90;99.90;;;;;;4977215;28;20478;-63
2022/10/21 13:44:00;;;;;;;2.20;1.40;;;18.80;99.90;;;;;;4977065;28;20455;-62
2022/10/21 13:46:32;;;;;;;3.60;1.40;;;18.80;99.90;;;;;;4977093;28;20928;-62
2022/10/21 13:48:59;;;;;;;6.73;1.37;;;18.80;99.90;;;;;;4977932;28;20447;-63
2022/10/21 13:51:28;;;;;;;1.60;0.90;;;18.80;99.90;;;;;;4977164;28;20475;-62
2022/10/21 13:53:57;;;;;;;1.17;1.07;;;18.80;99.90;;;;;;4977031;28;20509;-61
2022/10/21 13:56:26;;;;;;;5.37;1.33;;;18.70;99.90;;;;;;4976925;28;20482;-61
2022/10/21 13:58:53;;;;;;;2.00;0.97;;;18.70;99.90;;;;;;4976920;28;20458;-61
2022/10/21 14:01:24;;;;;;;2.93;1.10;;;18.70;99.90;;;;;;4976652;28;20537;-61
2022/10/21 14:03:53;;;;;;;1.50;1.20;;;18.60;99.90;;;;;;4976634;28;20442;-62
2022/10/21 14:06:25;;;;;;;0.90;0.90;;;18.60;99.90;;;;;;4976791;28;20459;-61
2022/10/21 14:08:54;;;;;;;3.33;1.07;;;18.60;99.90;;;;;;4976723;28;20439;-61
2022/10/21 14:11:26;;;;;;;1.60;1.50;;;18.60;99.90;;;;;;4976580;28;20565;-61
2022/10/21 14:13:54;;;;;;;1.40;1.30;;;18.60;99.90;;;;;;4976821;28;20478;-60
2022/10/21 14:16:25;;;;;;;4.73;1.27;;;18.60;99.90;;;;;;4976993;28;20454;-60
2022/10/21 14:18:53;;;;;;;1.87;1.20;;;18.60;99.90;;;;;;4976809;28;20443;-61
2022/10/21 14:21:23;;;;;;;1.90;1.27;;;18.60;99.90;;;;;;4976430;28;20549;-61
2022/10/21 14:23:50;;;;;;;1.90;1.30;;;18.70;99.90;;;;;;4976461;28;20501;-61
2022/10/21 14:26:17;;;;;;;1.10;1.10;;;18.70;99.90;;;;;;4976496;28;20791;-61
2022/10/21 14:28:45;;;;;;;3.07;1.30;;;18.70;99.90;;;;;;4976459;28;20451;-61
2022/10/21 14:31:13;;;;;;;1.37;1.27;;;18.70;99.90;;;;;;4976238;28;20475;-61
2022/10/21 14:33:42;;;;;;;2.33;1.40;;;18.80;99.90;;;;;;4976032;28;20479;-62
2022/10/21 14:36:14;;;;;;;1.17;1.17;;;18.70;99.90;;;;;;4976163;28;20454;-62
2022/10/21 14:38:44;;;;;;;2.00;1.33;;;18.70;99.90;;;;;;4976299;28;20841;-62
2022/10/21 14:41:18;;;;;;;4.97;1.27;;;18.70;99.90;;;;;;4975392;28;21025;-62
2022/10/21 14:43:48;;;;;;;1.30;1.20;;;18.60;99.90;;;;;;4976674;28;20494;-62
2022/10/21 14:46:15;;;;;;;1.57;1.00;;;18.60;99.90;;;;;;4976142;28;20454;-62
2022/10/21 14:48:46;;;;;;;2.17;1.00;;;18.60;99.90;;;;;;4976432;28;20513;-62
2022/10/21 14:51:17;;;;;;;1.33;1.23;;;18.60;99.90;;;;;;4975662;28;20931;-62
2022/10/21 14:53:49;;;;;;;1.23;1.23;;;18.60;99.90;;;;;;4975851;28;20521;-62
2022/10/21 14:56:19;;;;;;;2.87;0.73;;;18.60;99.90;;;;;;4975788;28;20509;-62
2022/10/21 14:58:50;;;;;;;3.03;1.57;;;18.60;99.90;;;;;;4975457;28;20570;-62
2022/10/21 15:01:20;;;;;;;1.03;1.00;;;18.60;99.90;;;;;;4975477;28;20529;-62
2022/10/21 15:03:48;;;;;;;1.33;1.23;;;18.60;99.90;;;;;;4975654;28;20459;-62
2022/10/21 15:06:18;;;;;;;1.53;1.43;;;18.60;99.90;;;;;;4975882;28;20462;-62
2022/10/21 15:08:58;;;;;;;1.37;1.33;;;18.40;99.90;;;;;;4975543;28;20969;-62
2022/10/21 15:11:41;;;;;;;2.40;1.47;;;18.40;99.90;;;;;;4976274;28;20958;-62
2022/10/21 15:14:19;;;;;;;2.60;1.00;;;18.40;99.90;;;;;;4975834;28;20438;-62
2022/10/21 15:16:49;;;;;;;4.20;1.30;;;18.30;99.90;;;;;;4975524;28;20463;-62
2022/10/21 15:19:18;;;;;;;0.90;0.90;;;18.30;99.90;;;;;;4975483;28;20824;-62
2022/10/21 15:21:51;;;;;;;0.80;0.70;;;18.30;99.90;;;;;;4974411;28;20879;-62
2022/10/21 15:24:20;;;;;;;3.10;1.20;;;18.20;99.90;;;;;;4975565;28;20443;-61
2022/10/21 15:26:50;;;;;;;3.30;1.70;;;18.20;99.90;;;;;;4975845;28;20509;-62
2022/10/21 15:29:26;;;;;;;1.70;1.20;;;18.20;99.90;;;;;;4975471;28;20435;-62
2022/10/21 15:31:53;;;;;;;1.70;1.60;;;18.20;99.90;;;;;;4975137;28;20470;-62
2022/10/21 15:34:20;;;;;;;1.13;1.13;;;18.10;99.90;;;;;;4975448;28;20455;-63
2022/10/21 15:36:48;;;;;;;2.90;1.10;;;18.10;99.90;;;;;;4975376;28;20454;-62
2022/10/21 15:39:14;;;;;;;2.23;1.17;;;18.10;99.90;;;;;;4974882;28;20458;-63
2022/10/21 15:41:41;;;;;;;1.33;1.10;;;18.00;99.90;;;;;;4975688;28;20776;-62
2022/10/21 15:44:17;;;;;;;0.70;0.70;;;18.00;99.90;;;;;;4974877;28;20462;-62
2022/10/21 15:46:45;;;;;;;4.37;1.47;;;18.00;99.90;;;;;;4976083;28;20513;-62
2022/10/21 15:49:15;;;;;;;0.93;0.90;;;18.10;99.90;;;;;;4975432;28;20505;-62
2022/10/21 15:51:42;;;;;;;1.53;1.27;;;18.00;99.90;;;;;;4974275;28;20545;-62
2022/10/21 15:54:10;;;;;;;2.87;0.90;;;18.00;99.90;;;;;;4974922;28;20462;-62
2022/10/21 15:56:37;;;;;;;1.80;1.30;;;18.00;99.90;;;;;;4975384;28;20458;-63
2022/10/21 15:59:04;;;;;;;1.50;1.00;;;17.90;99.90;;;;;;4975026;28;20501;-63
2022/10/21 16:01:31;;;;;;;1.53;1.00;;;17.90;99.90;;;;;;4974647;28;20541;-63
2022/10/21 16:03:57;;;;;;;0.80;0.80;;;17.90;99.90;;;;;;4975039;28;20458;-62
2022/10/21 16:06:24;;;;;;;3.23;1.30;;;17.90;99.90;;;;;;4974708;28;20949;-63
2022/10/21 16:08:51;;;;;;;1.17;1.07;;;17.90;99.90;;;;;;4976409;28;20510;-63
2022/10/21 16:11:21;;;;;;;1.40;1.20;;;17.90;99.90;;;;;;4978148;28;20476;-63
2022/10/21 16:13:48;;;;;;;1.00;1.00;;;17.90;99.90;;;;;;4977909;28;20461;-63
2022/10/21 16:16:19;;;;;;;2.40;1.33;;;17.80;99.90;;;;;;4977303;28;20490;-63
2022/10/21 16:18:47;;;;;;;2.30;1.17;;;17.80;99.90;;;;;;4978412;28;20477;-63
2022/10/21 16:21:15;;;;;;;1.50;1.40;;;17.80;99.90;;;;;;4979105;28;20479;-62
2022/10/21 16:23:42;;;;;;;5.20;1.37;;;17.80;99.90;;;;;;4979014;28;20823;-62
2022/10/21 16:26:14;;;;;;;1.63;1.23;;;17.80;99.90;;;;;;4979551;28;20458;-62
2022/10/21 16:28:43;;;;;;;1.10;1.10;;;17.80;99.90;;;;;;4980202;28;20442;-62
2022/10/21 16:31:11;;;;;;;1.50;1.40;;;17.80;99.90;;;;;;4979625;28;20502;-62
2022/10/21 16:33:39;;;;;;;1.50;1.37;;;17.80;99.90;;;;;;4978804;28;20455;-62
2022/10/21 16:36:14;;;;;;;1.20;1.20;;;17.80;99.90;;;;;;4977363;28;20458;-65
2022/10/21 16:38:42;;;;;;;6.60;1.40;;;17.80;99.90;;;;;;4978062;28;20462;-64
2022/10/21 16:41:10;;;;;;;1.57;1.47;;;17.80;99.90;;;;;;4976180;28;20485;-65
2022/10/21 16:43:37;;;;;;;1.50;1.40;;;17.70;99.90;;;;;;4975592;28;20458;-63
2022/10/21 16:46:05;;;;;;;3.40;1.47;;;17.70;99.90;;;;;;4975011;28;20525;-62
2022/10/21 16:48:32;;;;;;;1.20;1.13;;;17.70;99.90;;;;;;4974680;28;20504;-62
2022/10/21 16:50:59;;;;;;;3.13;1.30;;;17.70;99.90;;;;;;4974542;28;20537;-62
2022/10/21 16:53:27;;;;;;;1.37;1.27;;;17.70;99.90;;;;;;4974859;28;20454;-63
2022/10/21 16:55:54;;;;;;;1.43;1.33;;;17.70;99.90;;;;;;4975392;28;20454;-62